Time;durP1;ratioP1;P1;durP2;ratioP2;P2;SDS_P1;SDS_P2;PMS_P1;PMS_P2;Temp;Humidity;BMP_temperature;BMP_pressure;BME280_temperature;BME280_humidity;BME280_pressure;Samples;Min_cycle;Max_cycle;Signal;HPM_P1;HPM_P2
2021/12/09 00:02:20;;;;;;;99.00;24.80;;;;;;;;;;6376985;22;20178;-93
2021/12/09 00:04:47;;;;;;;103.65;27.60;;;;;;;;;;6378229;22;20172;-93
2021/12/09 00:07:13;;;;;;;111.53;28.75;;;;;;;;;;6378840;22;20179;-93
2021/12/09 00:09:40;;;;;;;115.50;30.90;;;;;;;;;;6377397;22;20176;-93
2021/12/09 00:12:08;;;;;;;96.80;25.33;;;;;;;;;;6377201;22;20180;-93
2021/12/09 00:14:35;;;;;;;98.70;24.70;;;;;;;;;;6378737;22;20191;-92
2021/12/09 00:17:03;;;;;;;99.60;25.77;;;;;;;;;;6379256;22;20173;-92
2021/12/09 00:19:30;;;;;;;105.82;29.63;;;;;;;;;;6379266;22;20172;-93
2021/12/09 00:21:58;;;;;;;111.85;31.65;;;;;;;;;;6378543;22;20180;-93
2021/12/09 00:24:25;;;;;;;105.18;27.23;;;;;;;;;;6378391;22;20172;-93
2021/12/09 00:26:51;;;;;;;100.57;25.40;;;;;;;;;;6377808;22;20173;-92
2021/12/09 00:29:19;;;;;;;104.32;27.38;;;;;;;;;;6377458;22;20226;-93
2021/12/09 00:31:47;;;;;;;125.85;31.85;;;;;;;;;;6373359;22;20196;-92
2021/12/09 00:34:14;;;;;;;190.40;38.97;;;;;;;;;;6373739;22;20182;-91
2021/12/09 00:36:43;;;;;;;271.02;44.47;;;;;;;;;;6373461;22;20179;-92
2021/12/09 00:39:11;;;;;;;331.02;47.63;;;;;;;;;;6376758;22;20172;-93
2021/12/09 00:41:38;;;;;;;172.05;38.33;;;;;;;;;;6378593;22;20171;-92
2021/12/09 00:44:05;;;;;;;136.95;34.95;;;;;;;;;;6379109;22;20168;-92
2021/12/09 00:46:32;;;;;;;175.20;37.08;;;;;;;;;;6373431;22;20172;-93
2021/12/09 00:48:59;;;;;;;116.82;30.20;;;;;;;;;;6368974;22;20200;-92
2021/12/09 00:51:26;;;;;;;116.07;30.05;;;;;;;;;;6371867;22;20161;-92
2021/12/09 00:53:52;;;;;;;105.50;27.70;;;;;;;;;;6382692;22;20202;-93
2021/12/09 00:56:19;;;;;;;98.78;25.17;;;;;;;;;;6382182;22;20237;-92
2021/12/09 00:58:45;;;;;;;107.35;27.67;;;;;;;;;;6369529;22;20177;-92
2021/12/09 01:01:12;;;;;;;101.35;26.70;;;;;;;;;;6373687;22;20202;-92
2021/12/09 01:03:41;;;;;;;97.50;24.70;;;;;;;;;;6377204;22;20198;-92
2021/12/09 01:06:08;;;;;;;101.47;24.88;;;;;;;;;;6378251;22;20176;-92
2021/12/09 01:08:34;;;;;;;94.40;23.48;;;;;;;;;;6377948;22;20661;-92
2021/12/09 01:11:01;;;;;;;93.20;23.13;;;;;;;;;;6378748;22;20633;-92
2021/12/09 01:13:27;;;;;;;89.15;22.13;;;;;;;;;;6378499;22;20189;-92
2021/12/09 01:15:54;;;;;;;87.82;20.50;;;;;;;;;;6377315;22;20198;-92
2021/12/09 01:18:20;;;;;;;90.18;21.90;;;;;;;;;;6377192;22;20172;-93
2021/12/09 01:20:48;;;;;;;94.00;22.75;;;;;;;;;;6378753;22;20172;-93
2021/12/09 01:23:15;;;;;;;91.95;23.17;;;;;;;;;;6378350;22;20198;-92
2021/12/09 01:25:43;;;;;;;81.68;19.60;;;;;;;;;;6378082;22;20175;-93
2021/12/09 01:28:16;;;;;;;84.43;18.20;;;;;;;;;;6377785;22;20717;-92
2021/12/09 01:30:43;;;;;;;85.05;19.02;;;;;;;;;;6379308;22;20173;-92
2021/12/09 01:33:10;;;;;;;86.45;18.63;;;;;;;;;;6379205;22;20229;-92
2021/12/09 01:35:38;;;;;;;86.20;18.25;;;;;;;;;;6379713;22;20168;-92
2021/12/09 01:38:11;;;;;;;86.70;18.45;;;;;;;;;;6380486;22;20180;-92
2021/12/09 01:40:38;;;;;;;83.78;18.70;;;;;;;;;;6378841;22;20228;-92
2021/12/09 01:43:05;;;;;;;85.45;19.73;;;;;;;;;;6378317;22;20197;-92
2021/12/09 01:45:32;;;;;;;88.53;20.15;;;;;;;;;;6378599;22;20232;-93
2021/12/09 01:47:59;;;;;;;94.05;21.95;;;;;;;;;;6378794;22;20198;-92
2021/12/09 01:50:26;;;;;;;105.18;27.88;;;;;;;;;;6380128;22;20604;-92
2021/12/09 01:52:52;;;;;;;98.00;23.67;;;;;;;;;;6383947;22;20179;-92
2021/12/09 01:55:21;;;;;;;104.05;25.05;;;;;;;;;;6379954;22;20237;-92
2021/12/09 01:57:48;;;;;;;108.38;28.50;;;;;;;;;;6377886;22;20213;-92
2021/12/09 02:00:16;;;;;;;108.85;27.05;;;;;;;;;;6378420;22;20225;-92
2021/12/09 02:02:42;;;;;;;114.38;27.63;;;;;;;;;;6378708;22;20276;-92
2021/12/09 02:05:10;;;;;;;276.95;40.75;;;;;;;;;;6380148;22;20172;-93
2021/12/09 02:07:36;;;;;;;258.15;39.65;;;;;;;;;;6380838;22;20176;-92
2021/12/09 02:10:04;;;;;;;374.73;44.92;;;;;;;;;;6379375;22;20222;-92
2021/12/09 02:12:32;;;;;;;283.25;43.63;;;;;;;;;;6376806;22;20170;-92
2021/12/09 02:15:00;;;;;;;336.25;45.75;;;;;;;;;;6379400;22;20172;-92
2021/12/09 02:17:27;;;;;;;200.15;38.78;;;;;;;;;;6380644;22;20199;-92
2021/12/09 02:19:53;;;;;;;331.83;45.67;;;;;;;;;;6379816;22;20604;-92
2021/12/09 02:22:21;;;;;;;333.60;39.40;;;;;;;;;;6377495;22;20203;-93
2021/12/09 02:24:47;;;;;;;204.13;37.40;;;;;;;;;;6379654;22;20173;-92
2021/12/09 02:27:14;;;;;;;234.88;38.58;;;;;;;;;;6380038;22;20201;-92
2021/12/09 02:29:41;;;;;;;239.45;40.70;;;;;;;;;;6380585;22;20276;-92
2021/12/09 02:32:08;;;;;;;367.15;39.55;;;;;;;;;;6380074;22;20188;-92
2021/12/09 02:34:34;;;;;;;229.30;38.42;;;;;;;;;;6380727;22;20234;-92
2021/12/09 02:37:01;;;;;;;244.10;36.45;;;;;;;;;;6379038;22;20206;-92
2021/12/09 02:39:28;;;;;;;219.32;37.42;;;;;;;;;;6379224;22;20176;-92
2021/12/09 02:41:55;;;;;;;197.63;34.45;;;;;;;;;;6379110;22;20225;-92
2021/12/09 02:44:22;;;;;;;281.45;37.05;;;;;;;;;;6379334;22;20194;-92
2021/12/09 02:46:50;;;;;;;148.23;32.53;;;;;;;;;;6379319;22;20233;-92
2021/12/09 02:49:17;;;;;;;172.70;36.70;;;;;;;;;;6379717;22;20222;-92
2021/12/09 02:51:44;;;;;;;175.30;32.95;;;;;;;;;;6379148;22;20193;-92
2021/12/09 02:54:12;;;;;;;162.15;34.95;;;;;;;;;;6378561;22;20176;-92
2021/12/09 02:56:40;;;;;;;247.23;36.15;;;;;;;;;;6377092;22;20172;-92
2021/12/09 02:59:08;;;;;;;264.13;36.15;;;;;;;;;;6377893;22;20180;-92
2021/12/09 03:01:35;;;;;;;195.13;35.53;;;;;;;;;;6380165;22;20180;-92
2021/12/09 03:04:03;;;;;;;206.55;37.15;;;;;;;;;;6380805;22;20172;-92
2021/12/09 03:06:30;;;;;;;192.25;34.78;;;;;;;;;;6379696;22;20176;-92
2021/12/09 03:08:57;;;;;;;159.52;34.50;;;;;;;;;;6380074;22;20226;-93
2021/12/09 03:11:24;;;;;;;156.05;34.45;;;;;;;;;;6378642;22;20172;-92
2021/12/09 03:13:52;;;;;;;157.82;35.20;;;;;;;;;;6378907;22;20173;-92
2021/12/09 03:16:22;;;;;;;171.10;34.25;;;;;;;;;;6378101;22;20233;-92
2021/12/09 03:18:50;;;;;;;207.77;40.78;;;;;;;;;;6378159;22;20179;-93
2021/12/09 03:21:17;;;;;;;247.10;38.25;;;;;;;;;;6378994;22;20172;-92
2021/12/09 03:23:44;;;;;;;185.73;34.30;;;;;;;;;;6379185;22;20213;-93
2021/12/09 03:26:10;;;;;;;187.88;33.72;;;;;;;;;;6379160;22;20621;-92
2021/12/09 03:28:37;;;;;;;170.05;32.38;;;;;;;;;;6378588;22;20200;-92
2021/12/09 03:31:05;;;;;;;127.60;30.45;;;;;;;;;;6379347;22;20334;-93
2021/12/09 03:33:31;;;;;;;137.88;32.30;;;;;;;;;;6379508;22;20177;-93
2021/12/09 03:35:58;;;;;;;143.50;30.33;;;;;;;;;;6379262;22;20207;-92
2021/12/09 03:38:25;;;;;;;139.25;30.50;;;;;;;;;;6379061;22;20201;-93
2021/12/09 03:40:52;;;;;;;109.32;25.73;;;;;;;;;;6379733;22;20180;-92
2021/12/09 03:43:18;;;;;;;99.35;25.10;;;;;;;;;;6380571;22;20225;-92
2021/12/09 03:45:45;;;;;;;104.13;25.10;;;;;;;;;;6380586;22;20180;-93
2021/12/09 03:48:13;;;;;;;97.20;24.55;;;;;;;;;;6379876;22;20217;-93
2021/12/09 03:50:39;;;;;;;101.38;25.48;;;;;;;;;;6379153;22;20233;-92
2021/12/09 03:53:06;;;;;;;101.50;24.67;;;;;;;;;;6379834;22;20172;-92
2021/12/09 03:55:32;;;;;;;100.10;25.73;;;;;;;;;;6378599;22;20176;-91
2021/12/09 03:57:58;;;;;;;104.18;25.60;;;;;;;;;;6378761;22;20176;-93
2021/12/09 04:00:28;;;;;;;101.95;25.63;;;;;;;;;;6378101;22;20240;-93
2021/12/09 04:02:54;;;;;;;106.82;28.00;;;;;;;;;;6377748;22;20182;-92
2021/12/09 04:05:22;;;;;;;108.90;28.35;;;;;;;;;;6377595;22;20176;-92
2021/12/09 04:07:48;;;;;;;105.55;27.83;;;;;;;;;;6376447;22;20268;-92
2021/12/09 04:10:15;;;;;;;161.30;30.98;;;;;;;;;;6378438;22;20253;-93
2021/12/09 04:12:42;;;;;;;158.20;33.13;;;;;;;;;;6379722;22;20175;-93
2021/12/09 04:15:09;;;;;;;148.75;36.70;;;;;;;;;;6378266;22;20546;-92
2021/12/09 04:17:35;;;;;;;135.13;33.08;;;;;;;;;;6377261;22;20201;-92
2021/12/09 04:20:02;;;;;;;206.55;35.30;;;;;;;;;;6378747;22;20175;-92
2021/12/09 04:22:30;;;;;;;139.00;31.15;;;;;;;;;;6378437;22;20232;-92
2021/12/09 04:24:57;;;;;;;168.23;35.38;;;;;;;;;;6378391;22;20841;-92
2021/12/09 04:27:25;;;;;;;279.65;37.97;;;;;;;;;;6377214;22;20201;-92
2021/12/09 04:29:52;;;;;;;225.98;39.20;;;;;;;;;;6379294;22;20253;-92
2021/12/09 04:32:18;;;;;;;226.38;35.70;;;;;;;;;;6379728;22;21252;-93
2021/12/09 04:34:45;;;;;;;238.70;38.50;;;;;;;;;;6388677;22;20160;-93
2021/12/09 04:37:12;;;;;;;163.85;34.28;;;;;;;;;;6395303;22;20165;-93
2021/12/09 04:39:40;;;;;;;193.07;34.35;;;;;;;;;;6388510;22;20399;-93
2021/12/09 04:42:07;;;;;;;200.52;35.67;;;;;;;;;;6378972;22;20176;-93
2021/12/09 04:44:34;;;;;;;257.02;37.28;;;;;;;;;;6379672;22;20176;-93
2021/12/09 04:47:01;;;;;;;194.75;33.67;;;;;;;;;;6379019;22;20176;-93
2021/12/09 04:49:27;;;;;;;162.77;32.30;;;;;;;;;;6378455;22;20280;-93
2021/12/09 04:51:54;;;;;;;145.45;33.83;;;;;;;;;;6377509;22;20176;-93
2021/12/09 04:54:21;;;;;;;159.52;34.55;;;;;;;;;;6377469;22;20229;-93
2021/12/09 04:56:49;;;;;;;151.75;34.45;;;;;;;;;;6378229;22;20172;-94
2021/12/09 04:59:15;;;;;;;154.55;33.25;;;;;;;;;;6377966;22;20197;-93
2021/12/09 05:01:47;;;;;;;203.88;34.42;;;;;;;;;;6377000;22;20199;-93
2021/12/09 05:04:13;;;;;;;182.55;33.30;;;;;;;;;;6371740;22;20181;-94
2021/12/09 05:06:40;;;;;;;177.57;32.13;;;;;;;;;;6370747;22;20172;-93
2021/12/09 05:09:10;;;;;;;190.60;34.30;;;;;;;;;;6372147;22;20200;-93
2021/12/09 05:11:48;;;;;;;138.52;30.48;;;;;;;;;;6376211;22;20179;-94
2021/12/09 05:14:16;;;;;;;176.65;30.48;;;;;;;;;;6376451;22;20198;-93
2021/12/09 05:16:43;;;;;;;140.25;31.65;;;;;;;;;;6379128;22;20246;-94
2021/12/09 05:19:09;;;;;;;143.35;30.77;;;;;;;;;;6378257;22;20209;-93
2021/12/09 05:21:38;;;;;;;162.48;31.58;;;;;;;;;;6377958;22;20204;-92
2021/12/09 05:24:05;;;;;;;120.80;31.25;;;;;;;;;;6375258;22;20173;-93
2021/12/09 05:26:38;;;;;;;171.40;32.80;;;;;;;;;;6374500;22;20878;-93
2021/12/09 05:29:05;;;;;;;137.35;32.58;;;;;;;;;;6377251;22;20196;-94
2021/12/09 05:34:17;;;;;;;135.48;32.10;;;;;;;;;;6376399;22;20179;-93
2021/12/09 05:36:43;;;;;;;136.75;31.23;;;;;;;;;;6375418;22;20179;-94
2021/12/09 05:39:10;;;;;;;114.35;29.80;;;;;;;;;;6375550;22;20177;-94
2021/12/09 05:41:37;;;;;;;123.00;29.73;;;;;;;;;;6378018;22;20176;-93
2021/12/09 05:44:05;;;;;;;117.90;29.35;;;;;;;;;;6378598;22;20222;-93
2021/12/09 05:46:33;;;;;;;117.43;29.42;;;;;;;;;;6377593;22;20236;-94
2021/12/09 05:48:59;;;;;;;113.50;29.45;;;;;;;;;;6377615;22;20184;-94
2021/12/09 05:51:26;;;;;;;111.70;30.40;;;;;;;;;;6379214;22;20202;-93
2021/12/09 05:53:55;;;;;;;121.60;28.58;;;;;;;;;;6378696;22;20272;-94
2021/12/09 05:56:21;;;;;;;118.75;28.65;;;;;;;;;;6376141;22;20185;-94
2021/12/09 05:58:48;;;;;;;110.25;28.65;;;;;;;;;;6375422;22;20174;-94
2021/12/09 06:01:15;;;;;;;112.60;30.50;;;;;;;;;;6376037;22;20173;-94
2021/12/09 06:03:43;;;;;;;114.72;29.38;;;;;;;;;;6377009;22;20177;-94
2021/12/09 06:06:11;;;;;;;113.60;30.80;;;;;;;;;;6377666;22;20205;-94
2021/12/09 06:08:39;;;;;;;113.93;30.55;;;;;;;;;;6378188;22;20168;-93
2021/12/09 06:11:07;;;;;;;116.35;29.25;;;;;;;;;;6375782;22;20203;-94
2021/12/09 06:13:36;;;;;;;121.55;31.05;;;;;;;;;;6375726;22;20183;-93
2021/12/09 06:16:04;;;;;;;133.15;31.20;;;;;;;;;;6377891;22;20203;-93
2021/12/09 06:18:30;;;;;;;133.38;32.20;;;;;;;;;;6377802;22;20175;-93
2021/12/09 06:20:58;;;;;;;127.28;31.50;;;;;;;;;;6380688;22;20176;-93
2021/12/09 06:23:25;;;;;;;124.97;31.95;;;;;;;;;;6380643;22;20173;-93
2021/12/09 06:25:51;;;;;;;148.52;39.22;;;;;;;;;;6380767;22;20176;-93
2021/12/09 06:28:18;;;;;;;150.15;38.45;;;;;;;;;;6380117;22;20196;-94
2021/12/09 06:30:45;;;;;;;166.73;39.78;;;;;;;;;;6379148;22;20233;-95
2021/12/09 06:33:11;;;;;;;241.65;41.47;;;;;;;;;;6377882;22;20172;-94
2021/12/09 06:35:38;;;;;;;142.00;37.28;;;;;;;;;;6379222;22;20176;-94
2021/12/09 06:38:11;;;;;;;125.30;34.95;;;;;;;;;;6379043;22;20261;-95
2021/12/09 06:40:37;;;;;;;136.82;37.92;;;;;;;;;;6379991;22;20176;-95
2021/12/09 06:43:04;;;;;;;144.18;36.40;;;;;;;;;;6380940;22;20198;-94
2021/12/09 06:45:31;;;;;;;139.93;37.70;;;;;;;;;;6380544;22;20633;-95
2021/12/09 06:47:57;;;;;;;136.55;35.75;;;;;;;;;;6381435;22;20231;-94
2021/12/09 06:50:24;;;;;;;134.90;38.10;;;;;;;;;;6379963;22;20200;-94
2021/12/09 06:52:51;;;;;;;146.23;40.28;;;;;;;;;;6380070;22;20179;-95
2021/12/09 06:55:20;;;;;;;146.65;38.97;;;;;;;;;;6379614;22;20229;-94
2021/12/09 06:57:47;;;;;;;140.30;39.53;;;;;;;;;;6378480;22;20201;-95
2021/12/09 07:00:15;;;;;;;144.60;38.60;;;;;;;;;;6379338;22;20173;-95
2021/12/09 07:02:44;;;;;;;189.65;47.42;;;;;;;;;;6376431;22;20184;-95
2021/12/09 07:05:10;;;;;;;194.15;52.97;;;;;;;;;;6378161;22;20224;-96
2021/12/09 07:07:37;;;;;;;253.52;56.78;;;;;;;;;;6377516;22;20173;-94
2021/12/09 07:10:04;;;;;;;277.48;60.58;;;;;;;;;;6378303;22;20197;-95
2021/12/09 07:12:34;;;;;;;217.00;54.83;;;;;;;;;;6378193;22;20177;-95
2021/12/09 07:15:00;;;;;;;267.38;51.47;;;;;;;;;;6378697;22;20181;-94
2021/12/09 07:17:27;;;;;;;196.50;50.45;;;;;;;;;;6379417;22;20177;-94
2021/12/09 07:19:53;;;;;;;211.95;53.70;;;;;;;;;;6379635;22;20242;-94
2021/12/09 07:22:20;;;;;;;214.60;53.28;;;;;;;;;;6379376;22;20173;-95
2021/12/09 07:24:46;;;;;;;211.20;49.97;;;;;;;;;;6379766;22;20172;-93
2021/12/09 07:27:13;;;;;;;224.70;53.08;;;;;;;;;;6375466;22;20168;-94
2021/12/09 07:29:41;;;;;;;212.10;47.30;;;;;;;;;;6376351;22;20173;-95
2021/12/09 07:32:08;;;;;;;252.65;44.33;;;;;;;;;;6378945;22;20170;-95
2021/12/09 07:34:34;;;;;;;387.52;53.50;;;;;;;;;;6378523;22;20691;-95
2021/12/09 07:37:04;;;;;;;301.65;51.88;;;;;;;;;;6378291;22;20174;-95
2021/12/09 07:39:31;;;;;;;338.30;53.60;;;;;;;;;;6378305;22;20201;-95
2021/12/09 07:41:59;;;;;;;374.70;55.80;;;;;;;;;;6378334;22;20779;-94
2021/12/09 07:44:26;;;;;;;274.42;53.90;;;;;;;;;;6382669;22;20177;-95
2021/12/09 07:46:55;;;;;;;228.25;51.13;;;;;;;;;;6379114;22;20176;-96
2021/12/09 07:49:21;;;;;;;316.50;55.88;;;;;;;;;;6379666;22;20173;-95
2021/12/09 07:51:48;;;;;;;229.77;50.58;;;;;;;;;;6376033;22;20196;-95
2021/12/09 07:54:15;;;;;;;217.93;52.22;;;;;;;;;;6376839;22;20176;-95
2021/12/09 07:56:42;;;;;;;183.55;46.85;;;;;;;;;;6379234;22;20182;-95
2021/12/09 07:59:08;;;;;;;225.85;53.20;;;;;;;;;;6379277;22;20178;-95
2021/12/09 08:01:35;;;;;;;234.90;53.63;;;;;;;;;;6378682;22;20181;-96
2021/12/09 08:04:03;;;;;;;235.93;53.88;;;;;;;;;;6378855;22;20200;-96
2021/12/09 08:06:30;;;;;;;175.98;48.95;;;;;;;;;;6379606;22;20170;-95
2021/12/09 08:08:56;;;;;;;242.43;58.45;;;;;;;;;;6383399;22;20545;-95
2021/12/09 08:11:23;;;;;;;190.32;49.08;;;;;;;;;;6381123;22;20194;-95
2021/12/09 08:13:49;;;;;;;214.68;49.30;;;;;;;;;;6381788;22;20172;-95
2021/12/09 08:16:17;;;;;;;217.60;51.13;;;;;;;;;;6386514;22;20178;-95
2021/12/09 08:18:53;;;;;;;178.27;47.70;;;;;;;;;;6382193;22;20174;-94
2021/12/09 08:21:21;;;;;;;220.55;53.83;;;;;;;;;;6379750;22;20178;-95
2021/12/09 08:23:48;;;;;;;177.50;48.28;;;;;;;;;;6379785;22;20233;-96
2021/12/09 08:26:14;;;;;;;169.80;50.22;;;;;;;;;;6377577;22;20582;-96
2021/12/09 08:28:41;;;;;;;153.32;46.97;;;;;;;;;;6378815;22;20206;-95
2021/12/09 08:31:07;;;;;;;155.90;48.55;;;;;;;;;;6378742;22;20202;-96
2021/12/09 08:33:34;;;;;;;194.60;54.70;;;;;;;;;;6376177;22;20241;-96
2021/12/09 08:36:01;;;;;;;168.13;52.28;;;;;;;;;;6373920;22;20178;-95
2021/12/09 08:38:28;;;;;;;169.55;54.08;;;;;;;;;;6376892;22;20181;-95
2021/12/09 08:40:55;;;;;;;193.05;60.97;;;;;;;;;;6375781;22;20173;-96
2021/12/09 08:43:22;;;;;;;213.70;62.58;;;;;;;;;;6374773;22;20231;-95
2021/12/09 08:45:50;;;;;;;195.88;58.22;;;;;;;;;;6374351;22;20222;-96
2021/12/09 08:48:17;;;;;;;257.25;71.47;;;;;;;;;;6374696;22;20253;-95
2021/12/09 08:50:44;;;;;;;272.42;77.60;;;;;;;;;;6376636;22;20189;-96
2021/12/09 08:53:13;;;;;;;243.90;70.40;;;;;;;;;;6378313;22;20182;-96
2021/12/09 08:55:41;;;;;;;230.63;72.15;;;;;;;;;;6378295;22;20199;-96
2021/12/09 08:58:08;;;;;;;254.82;78.25;;;;;;;;;;6377969;22;20174;-96
2021/12/09 09:00:35;;;;;;;243.85;76.95;;;;;;;;;;6378272;22;20165;-96
2021/12/09 09:03:02;;;;;;;224.13;78.63;;;;;;;;;;6377659;22;20171;-96
2021/12/09 09:05:30;;;;;;;224.55;73.18;;;;;;;;;;6377932;22;20394;-96
2021/12/09 09:07:57;;;;;;;225.90;78.55;;;;;;;;;;6377547;22;20192;-96
2021/12/09 09:10:25;;;;;;;239.35;78.10;;;;;;;;;;6378149;22;20185;-96
2021/12/09 09:12:53;;;;;;;259.83;85.07;;;;;;;;;;6375030;22;20205;-96
2021/12/09 09:15:21;;;;;;;273.58;98.00;;;;;;;;;;6375041;22;20236;-95
2021/12/09 09:17:47;;;;;;;269.00;94.65;;;;;;;;;;6374733;22;20181;-96
2021/12/09 09:20:15;;;;;;;277.80;97.55;;;;;;;;;;6378518;22;20614;-96
2021/12/09 09:22:42;;;;;;;276.17;97.93;;;;;;;;;;6383128;22;20258;-96
2021/12/09 09:25:10;;;;;;;298.10;103.97;;;;;;;;;;6380948;22;20416;-96
2021/12/09 09:27:37;;;;;;;320.40;107.23;;;;;;;;;;6377535;22;20434;-95
2021/12/09 09:30:08;;;;;;;301.80;100.18;;;;;;;;;;6383763;22;20410;-96
2021/12/09 09:41:03;;;;;;;365.17;116.18;;;;;;;;;;6333892;22;20210;-96
2021/12/09 09:43:42;;;;;;;355.45;123.63;;;;;;;;;;6353640;22;20182;-96
2021/12/09 09:46:11;;;;;;;329.65;124.32;;;;;;;;;;6349932;22;20173;-96
2021/12/09 09:56:52;;;;;;;304.17;109.88;;;;;;;;;;6327263;22;20284;-96
2021/12/09 10:12:35;;;;;;;283.03;114.30;;;;;;;;;;6335911;22;20450;-95
2021/12/09 10:15:02;;;;;;;268.60;113.07;;;;;;;;;;6384327;22;20398;-95
2021/12/09 10:17:29;;;;;;;271.87;116.50;;;;;;;;;;6382904;22;20398;-96
2021/12/09 10:20:20;;;;;;;279.13;115.27;;;;;;;;;;6368433;22;21200;-96
2021/12/09 10:23:10;;;;;;;290.73;122.93;;;;;;;;;;6379007;22;20556;-96
2021/12/09 10:34:36;;;;;;;217.87;86.70;;;;;;;;;;6359069;22;20457;-96
2021/12/09 10:37:08;;;;;;;96.30;25.40;;;;;;;;;;6357140;22;20477;-92
2021/12/09 10:39:40;;;;;;;72.70;13.70;;;;;;;;;;6385742;22;20409;-95
2021/12/09 10:42:08;;;;;;;71.67;13.20;;;;;;;;;;6383547;22;20487;-92
2021/12/09 10:44:38;;;;;;;71.50;12.70;;;;;;;;;;6382402;22;20402;-94
2021/12/09 10:47:09;;;;;;;69.40;12.40;;;;;;;;;;6381157;22;20406;-93
2021/12/09 10:49:47;;;;;;;69.00;12.40;;;;;;;;;;6383404;22;20410;-93
2021/12/09 10:52:25;;;;;;;68.60;11.33;;;;;;;;;;6383983;22;20476;-94
2021/12/09 10:54:52;;;;;;;67.93;11.63;;;;;;;;;;6382833;22;20406;-95
2021/12/09 10:57:25;;;;;;;66.80;10.83;;;;;;;;;;6380528;22;20410;-92
2021/12/09 10:59:52;;;;;;;68.70;10.97;;;;;;;;;;6382329;22;20403;-93
2021/12/09 11:02:19;;;;;;;65.53;10.80;;;;;;;;;;6380506;22;20406;-92
2021/12/09 11:05:00;;;;;;;66.47;11.17;;;;;;;;;;6381518;22;20440;-93
2021/12/09 11:07:31;;;;;;;67.90;11.30;;;;;;;;;;6373524;22;20407;-94
2021/12/09 11:10:31;;;;;;;66.47;10.70;;;;;;;;;;6381102;22;20408;-94
2021/12/09 11:12:59;;;;;;;67.10;11.70;;;;;;;;;;6220978;23;20443;-93
2021/12/09 11:15:55;;;;;;;69.47;12.10;;;;;;;;;;6224339;23;20412;-94
2021/12/09 11:18:32;;;;;;;69.70;12.10;;;;;;;;;;6330132;22;20403;-92
2021/12/09 11:21:04;;;;;;;67.80;11.97;;;;;;;;;;6385043;22;20765;-96
2021/12/09 11:23:34;;;;;;;68.47;12.67;;;;;;;;;;6386064;22;20464;-95
2021/12/09 11:26:16;;;;;;;68.73;12.57;;;;;;;;;;6383249;22;20414;-92
2021/12/09 11:28:52;;;;;;;68.20;12.43;;;;;;;;;;6348711;22;20414;-93
2021/12/09 11:31:19;;;;;;;67.70;11.87;;;;;;;;;;6380525;22;20448;-94
2021/12/09 11:33:47;;;;;;;67.83;12.43;;;;;;;;;;6382376;22;20404;-95
2021/12/09 11:36:17;;;;;;;67.90;11.70;;;;;;;;;;6381118;22;20437;-95
2021/12/09 11:39:06;;;;;;;67.37;12.23;;;;;;;;;;6382392;22;20423;-93
2021/12/09 11:41:37;;;;;;;67.90;12.10;;;;;;;;;;6383396;22;20403;-94
2021/12/09 11:44:09;;;;;;;66.67;11.70;;;;;;;;;;6383243;22;20479;-95
2021/12/09 11:46:36;;;;;;;66.17;11.63;;;;;;;;;;6381740;22;20414;-93
2021/12/09 11:49:03;;;;;;;65.80;11.23;;;;;;;;;;6383319;22;20420;-91
2021/12/09 11:51:29;;;;;;;70.53;12.60;;;;;;;;;;6381064;22;20520;-93
2021/12/09 11:53:58;;;;;;;67.20;11.73;;;;;;;;;;6381871;22;20407;-93
2021/12/09 11:56:33;;;;;;;68.40;12.60;;;;;;;;;;6379511;22;20404;-95
2021/12/09 11:59:24;;;;;;;67.50;12.03;;;;;;;;;;6377347;22;20451;-93
2021/12/09 12:07:55;;;;;;;67.30;12.43;;;;;;;;;;6326509;22;20532;-92
2021/12/09 12:13:28;;;;;;;66.27;12.07;;;;;;;;;;6378858;22;20422;-90
2021/12/09 12:16:01;;;;;;;69.63;11.07;;;;;;;;;;6377945;22;20408;-96
2021/12/09 12:18:39;;;;;;;73.33;12.17;;;;;;;;;;6380519;22;20914;-91
2021/12/09 12:21:40;;;;;;;65.80;10.93;;;;;;;;;;6382468;22;20400;-94
2021/12/09 12:24:37;;;;;;;66.57;11.93;;;;;;;;;;6382617;22;20438;-92
2021/12/09 12:27:09;;;;;;;67.63;13.00;;;;;;;;;;6377389;22;20543;-94
2021/12/09 12:30:01;;;;;;;68.40;12.97;;;;;;;;;;6376284;22;20407;-90
2021/12/09 12:38:34;;;;;;;67.83;12.93;;;;;;;;;;5088437;28;20430;-96
2021/12/09 12:41:09;;;;;;;66.37;10.80;;;;;;;;;;5097676;28;20478;-96
2021/12/09 12:43:43;;;;;;;67.20;11.97;;;;;;;;;;5104496;22;20480;-96
2021/12/09 12:46:19;;;;;;;66.97;11.83;;;;;;;;;;5034857;28;20553;-95
2021/12/09 12:49:04;;;;;;;66.97;11.90;;;;;;;;;;5038635;28;20452;-92
2021/12/09 12:51:36;;;;;;;67.37;12.40;;;;;;;;;;5035491;28;20477;-92
2021/12/09 12:54:26;;;;;;;67.20;12.60;;;;;;;;;;5039106;28;20453;-96
2021/12/09 12:56:57;;;;;;;66.30;11.87;;;;;;;;;;5043106;28;20469;-96
2021/12/09 12:59:28;;;;;;;68.20;12.70;;;;;;;;;;5038820;28;20522;-94
2021/12/09 13:05:17;;;;;;;69.03;13.43;;;;;;;;;;5048451;22;20592;-96
2021/12/09 13:08:06;;;;;;;70.17;13.87;;;;;;;;;;5113734;28;20440;-96
2021/12/09 13:10:50;;;;;;;71.80;14.07;;;;;;;;;;5160067;22;20515;-96
2021/12/09 13:13:29;;;;;;;66.27;12.27;;;;;;;;;;5099326;28;20428;-93
2021/12/09 13:16:02;;;;;;;66.70;11.80;;;;;;;;;;5101565;28;20565;-96
2021/12/09 13:18:53;;;;;;;66.83;12.00;;;;;;;;;;5096277;28;20467;-96
2021/12/09 13:21:38;;;;;;;69.90;12.47;;;;;;;;;;5103338;28;20445;-96
2021/12/09 13:24:30;;;;;;;67.20;12.37;;;;;;;;;;5098858;28;20441;-95
2021/12/09 13:27:36;;;;;;;67.10;11.60;;;;;;;;;;5098056;28;20476;-95
2021/12/09 13:30:20;;;;;;;66.57;12.43;;;;;;;;;;5101789;28;20930;-96
2021/12/09 13:36:07;;;;;;;66.97;12.33;;;;;;;;;;5101610;28;20456;-96
2021/12/09 13:46:47;;;;;;;66.27;11.93;;;;;;;;;;5029810;28;20431;-95
2021/12/09 13:54:03;;;;;;;66.03;12.00;;;;;;;;;;5056837;28;20435;-92
2021/12/09 13:54:52;;;;;;;67.00;11.57;;;;;;;;;;5056108;28;20542;-95
2021/12/09 13:57:31;;;;;;;65.57;12.00;;;;;;;;;;5056048;28;20854;-96
2021/12/09 13:59:57;;;;;;;67.30;12.67;;;;;;;;;;5053376;28;20466;-95
2021/12/09 14:02:26;;;;;;;68.50;12.97;;;;;;;;;;5054169;28;20441;-92
2021/12/09 14:04:53;;;;;;;68.10;13.43;;;;;;;;;;5054238;28;20461;-91
2021/12/09 14:07:26;;;;;;;67.70;11.97;;;;;;;;;;5054004;28;20448;-93
2021/12/09 14:09:56;;;;;;;68.80;13.13;;;;;;;;;;5052370;28;20564;-92
2021/12/09 14:12:26;;;;;;;68.00;13.10;;;;;;;;;;5052334;28;20516;-96
2021/12/09 14:15:02;;;;;;;66.70;12.40;;;;;;;;;;5054961;28;20514;-95
2021/12/09 14:17:29;;;;;;;66.87;12.23;;;;;;;;;;5056133;28;20439;-95
2021/12/09 14:20:06;;;;;;;68.43;13.33;;;;;;;;;;5053750;28;20479;-95
2021/12/09 14:22:35;;;;;;;70.60;13.13;;;;;;;;;;5054400;28;20458;-95
2021/12/09 14:25:06;;;;;;;67.97;13.07;;;;;;;;;;5053086;28;20491;-90
2021/12/09 14:27:34;;;;;;;68.27;13.23;;;;;;;;;;5054613;28;20450;-91
2021/12/09 14:30:01;;;;;;;67.50;12.30;;;;;;;;;;5056527;28;20470;-95
2021/12/09 14:32:28;;;;;;;69.03;12.13;;;;;;;;;;5054048;28;20449;-96
2021/12/09 14:34:56;;;;;;;70.40;13.67;;;;;;;;;;5055588;28;20487;-95
2021/12/09 14:37:23;;;;;;;68.23;11.83;;;;;;;;;;5050988;28;20444;-95
2021/12/09 14:40:00;;;;;;;69.83;13.50;;;;;;;;;;5060871;28;20501;-95
2021/12/09 14:42:31;;;;;;;71.67;13.73;;;;;;;;;;5075632;28;20461;-95
2021/12/09 14:45:00;;;;;;;73.90;15.47;;;;;;;;;;5074854;28;20457;-90
2021/12/09 14:47:27;;;;;;;72.37;14.60;;;;;;;;;;5073549;28;20462;-94
2021/12/09 14:49:56;;;;;;;69.47;14.73;;;;;;;;;;5070571;28;20451;-91
2021/12/09 14:52:26;;;;;;;69.47;13.33;;;;;;;;;;5069759;28;20439;-96
2021/12/09 14:54:53;;;;;;;69.27;13.13;;;;;;;;;;5067718;28;20569;-93
2021/12/09 14:57:19;;;;;;;69.20;14.23;;;;;;;;;;5066393;28;20435;-96
2021/12/09 14:59:50;;;;;;;71.20;13.43;;;;;;;;;;5067277;28;20457;-92
2021/12/09 15:02:22;;;;;;;68.10;13.27;;;;;;;;;;5066368;28;20456;-94
2021/12/09 15:04:52;;;;;;;68.23;13.03;;;;;;;;;;5067928;28;20454;-92
2021/12/09 15:10:04;;;;;;;71.47;13.10;;;;;;;;;;5155976;22;20489;-93
2021/12/09 15:18:07;;;;;;;67.90;12.60;;;;;;;;;;5089006;28;20445;-96
2021/12/09 15:20:39;;;;;;;68.63;13.13;;;;;;;;;;5095970;28;20457;-96
2021/12/09 15:23:12;;;;;;;67.57;12.03;;;;;;;;;;5096180;28;20437;-96
2021/12/09 15:25:40;;;;;;;71.20;13.00;;;;;;;;;;5096332;28;20935;-96
2021/12/09 15:28:08;;;;;;;68.50;13.13;;;;;;;;;;5100176;28;20449;-95
2021/12/09 15:33:42;;;;;;;68.40;12.10;;;;;;;;;;5068065;28;20476;-94
2021/12/09 15:36:10;;;;;;;68.60;13.27;;;;;;;;;;5075961;28;20469;-95
2021/12/09 15:38:44;;;;;;;68.90;12.97;;;;;;;;;;5080614;28;20443;-96
2021/12/09 15:41:22;;;;;;;68.27;13.00;;;;;;;;;;5080482;28;20447;-92
2021/12/09 15:43:51;;;;;;;66.83;12.23;;;;;;;;;;5080642;28;20449;-95
2021/12/09 15:46:19;;;;;;;70.13;13.20;;;;;;;;;;5082676;28;20438;-96
2021/12/09 15:48:46;;;;;;;71.70;13.50;;;;;;;;;;5084642;28;20479;-94